sensor_id;sensor_type;location;lat;lon;timestamp;temperature;humidity
9437;DHT22;4757;59.334;18.034;2023-03-15T00:01:25;0.30;99.90
9437;DHT22;4757;59.334;18.034;2023-03-15T00:03:53;0.30;99.90
9437;DHT22;4757;59.334;18.034;2023-03-15T00:06:21;0.40;99.90
9437;DHT22;4757;59.334;18.034;2023-03-15T00:08:48;0.30;99.90
9437;DHT22;4757;59.334;18.034;2023-03-15T00:11:18;0.30;99.90
9437;DHT22;4757;59.334;18.034;2023-03-15T00:13:56;0.30;99.90
9437;DHT22;4757;59.334;18.034;2023-03-15T00:16:36;0.30;99.90
9437;DHT22;4757;59.334;18.034;2023-03-15T00:19:03;0.20;99.90
9437;DHT22;4757;59.334;18.034;2023-03-15T00:21:31;0.20;99.90
9437;DHT22;4757;59.334;18.034;2023-03-15T00:24:00;0.20;99.90
9437;DHT22;4757;59.334;18.034;2023-03-15T00:26:28;0.20;99.90
9437;DHT22;4757;59.334;18.034;2023-03-15T00:28:56;0.20;99.90
9437;DHT22;4757;59.334;18.034;2023-03-15T00:31:24;0.20;99.90
9437;DHT22;4757;59.334;18.034;2023-03-15T00:33:52;0.20;99.90
9437;DHT22;4757;59.334;18.034;2023-03-15T00:36:32;0.20;99.90
9437;DHT22;4757;59.334;18.034;2023-03-15T00:39:15;0.10;99.90
9437;DHT22;4757;59.334;18.034;2023-03-15T00:41:51;0.20;99.90
9437;DHT22;4757;59.334;18.034;2023-03-15T00:44:23;0.10;99.90
9437;DHT22;4757;59.334;18.034;2023-03-15T00:46:50;0.10;99.90
9437;DHT22;4757;59.334;18.034;2023-03-15T00:49:18;0.10;99.90
9437;DHT22;4757;59.334;18.034;2023-03-15T00:51:45;0.00;99.90
9437;DHT22;4757;59.334;18.034;2023-03-15T00:54:12;0.00;99.90
9437;DHT22;4757;59.334;18.034;2023-03-15T00:56:39;0.00;99.90
9437;DHT22;4757;59.334;18.034;2023-03-15T00:59:07;0.00;99.90
9437;DHT22;4757;59.334;18.034;2023-03-15T01:01:35;0.00;99.90
9437;DHT22;4757;59.334;18.034;2023-03-15T01:04:04;-0.10;99.90
9437;DHT22;4757;59.334;18.034;2023-03-15T01:06:31;-0.10;99.90
9437;DHT22;4757;59.334;18.034;2023-03-15T01:08:59;-0.10;99.90
9437;DHT22;4757;59.334;18.034;2023-03-15T01:11:28;-0.20;99.90
9437;DHT22;4757;59.334;18.034;2023-03-15T01:13:57;-0.20;99.90
9437;DHT22;4757;59.334;18.034;2023-03-15T01:16:26;-0.20;99.90
9437;DHT22;4757;59.334;18.034;2023-03-15T01:18:54;-0.20;99.90
9437;DHT22;4757;59.334;18.034;2023-03-15T01:21:22;-0.30;99.90
9437;DHT22;4757;59.334;18.034;2023-03-15T01:23:50;-0.30;99.90
9437;DHT22;4757;59.334;18.034;2023-03-15T01:26:17;-0.30;99.90
9437;DHT22;4757;59.334;18.034;2023-03-15T01:28:45;-0.30;99.90
9437;DHT22;4757;59.334;18.034;2023-03-15T01:31:22;-0.30;99.90
9437;DHT22;4757;59.334;18.034;2023-03-15T01:33:49;-0.30;99.90
9437;DHT22;4757;59.334;18.034;2023-03-15T01:36:17;-0.30;99.90
9437;DHT22;4757;59.334;18.034;2023-03-15T01:38:44;-0.40;99.90
9437;DHT22;4757;59.334;18.034;2023-03-15T01:41:18;-0.40;99.90
9437;DHT22;4757;59.334;18.034;2023-03-15T01:43:59;-0.40;99.90
9437;DHT22;4757;59.334;18.034;2023-03-15T01:46:28;-0.50;99.90
9437;DHT22;4757;59.334;18.034;2023-03-15T01:59:53;-0.60;99.90
9437;DHT22;4757;59.334;18.034;2023-03-15T02:02:24;-0.60;99.90
9437;DHT22;4757;59.334;18.034;2023-03-15T02:04:57;-0.60;99.90
9437;DHT22;4757;59.334;18.034;2023-03-15T02:07:27;-0.60;99.90
9437;DHT22;4757;59.334;18.034;2023-03-15T02:10:02;-0.60;99.90
9437;DHT22;4757;59.334;18.034;2023-03-15T02:12:50;-0.70;99.90
9437;DHT22;4757;59.334;18.034;2023-03-15T02:15:19;-0.70;99.90
9437;DHT22;4757;59.334;18.034;2023-03-15T02:17:47;-0.70;99.90
9437;DHT22;4757;59.334;18.034;2023-03-15T02:20:36;-0.70;99.90
9437;DHT22;4757;59.334;18.034;2023-03-15T02:23:19;-0.70;99.90
9437;DHT22;4757;59.334;18.034;2023-03-15T02:26:20;-0.80;99.90
9437;DHT22;4757;59.334;18.034;2023-03-15T02:28:50;-0.80;99.90
9437;DHT22;4757;59.334;18.034;2023-03-15T02:31:18;-0.80;99.90
9437;DHT22;4757;59.334;18.034;2023-03-15T02:33:50;-0.80;99.90
9437;DHT22;4757;59.334;18.034;2023-03-15T02:36:24;-0.80;99.90
9437;DHT22;4757;59.334;18.034;2023-03-15T02:38:52;-0.90;99.90
9437;DHT22;4757;59.334;18.034;2023-03-15T02:41:36;-0.90;99.90
9437;DHT22;4757;59.334;18.034;2023-03-15T02:44:13;-0.90;99.90
9437;DHT22;4757;59.334;18.034;2023-03-15T02:46:42;-0.90;99.90
9437;DHT22;4757;59.334;18.034;2023-03-15T02:49:12;-0.90;99.90
9437;DHT22;4757;59.334;18.034;2023-03-15T02:51:40;-0.90;99.90
9437;DHT22;4757;59.334;18.034;2023-03-15T02:54:08;-0.90;99.90
9437;DHT22;4757;59.334;18.034;2023-03-15T02:56:35;-1.00;99.90
9437;DHT22;4757;59.334;18.034;2023-03-15T02:59:02;-1.00;99.90
9437;DHT22;4757;59.334;18.034;2023-03-15T03:01:33;-1.10;99.90
9437;DHT22;4757;59.334;18.034;2023-03-15T03:04:04;-1.00;99.90
9437;DHT22;4757;59.334;18.034;2023-03-15T03:06:31;-1.00;99.90
9437;DHT22;4757;59.334;18.034;2023-03-15T03:08:58;-1.10;99.90
9437;DHT22;4757;59.334;18.034;2023-03-15T03:11:29;-1.10;99.90
9437;DHT22;4757;59.334;18.034;2023-03-15T03:13:56;-1.10;99.90
9437;DHT22;4757;59.334;18.034;2023-03-15T03:16:23;-1.10;99.90
9437;DHT22;4757;59.334;18.034;2023-03-15T03:18:50;-1.10;99.90
9437;DHT22;4757;59.334;18.034;2023-03-15T03:21:17;-1.10;99.90
9437;DHT22;4757;59.334;18.034;2023-03-15T03:23:44;-1.20;99.90
9437;DHT22;4757;59.334;18.034;2023-03-15T03:26:15;-1.20;99.90
9437;DHT22;4757;59.334;18.034;2023-03-15T03:28:44;-1.10;99.90
9437;DHT22;4757;59.334;18.034;2023-03-15T03:31:21;-1.20;99.90
9437;DHT22;4757;59.334;18.034;2023-03-15T03:33:49;-1.20;99.90
9437;DHT22;4757;59.334;18.034;2023-03-15T03:36:22;-1.20;99.90
9437;DHT22;4757;59.334;18.034;2023-03-15T03:38:51;-1.20;99.90
9437;DHT22;4757;59.334;18.034;2023-03-15T03:41:19;-1.20;99.90
9437;DHT22;4757;59.334;18.034;2023-03-15T03:43:47;-1.20;99.90
9437;DHT22;4757;59.334;18.034;2023-03-15T03:46:14;-1.20;99.90
9437;DHT22;4757;59.334;18.034;2023-03-15T03:48:41;-1.30;99.90
9437;DHT22;4757;59.334;18.034;2023-03-15T03:51:09;-1.20;99.90
9437;DHT22;4757;59.334;18.034;2023-03-15T03:53:37;-1.20;99.90
9437;DHT22;4757;59.334;18.034;2023-03-15T03:56:05;-1.30;99.90
9437;DHT22;4757;59.334;18.034;2023-03-15T03:58:32;-1.30;99.90
9437;DHT22;4757;59.334;18.034;2023-03-15T04:01:00;-1.30;99.90
9437;DHT22;4757;59.334;18.034;2023-03-15T04:03:27;-1.30;99.90
9437;DHT22;4757;59.334;18.034;2023-03-15T04:05:58;-1.30;99.90
9437;DHT22;4757;59.334;18.034;2023-03-15T04:08:25;-1.20;99.90
9437;DHT22;4757;59.334;18.034;2023-03-15T04:10:54;-1.20;99.90
9437;DHT22;4757;59.334;18.034;2023-03-15T04:13:23;-1.20;99.90
9437;DHT22;4757;59.334;18.034;2023-03-15T04:15:51;-1.30;99.90
9437;DHT22;4757;59.334;18.034;2023-03-15T04:18:23;-1.30;99.90
9437;DHT22;4757;59.334;18.034;2023-03-15T04:20:51;-1.30;99.90
9437;DHT22;4757;59.334;18.034;2023-03-15T04:23:21;-1.30;99.90
9437;DHT22;4757;59.334;18.034;2023-03-15T04:25:50;-1.30;99.90
9437;DHT22;4757;59.334;18.034;2023-03-15T04:28:18;-1.30;99.90
9437;DHT22;4757;59.334;18.034;2023-03-15T04:30:49;-1.30;99.90
9437;DHT22;4757;59.334;18.034;2023-03-15T04:33:17;-1.30;99.90
9437;DHT22;4757;59.334;18.034;2023-03-15T04:35:46;-1.30;99.90
9437;DHT22;4757;59.334;18.034;2023-03-15T04:38:14;-1.30;99.90
9437;DHT22;4757;59.334;18.034;2023-03-15T04:40:42;-1.30;99.90
9437;DHT22;4757;59.334;18.034;2023-03-15T04:43:10;-1.30;99.90
9437;DHT22;4757;59.334;18.034;2023-03-15T04:45:39;-1.30;99.90
9437;DHT22;4757;59.334;18.034;2023-03-15T04:48:07;-1.40;99.90
9437;DHT22;4757;59.334;18.034;2023-03-15T04:50:34;-1.30;99.90
9437;DHT22;4757;59.334;18.034;2023-03-15T04:53:01;-1.40;99.90
9437;DHT22;4757;59.334;18.034;2023-03-15T04:55:28;-1.30;99.90
9437;DHT22;4757;59.334;18.034;2023-03-15T04:57:55;-1.30;99.90
9437;DHT22;4757;59.334;18.034;2023-03-15T05:00:24;-1.30;99.90
9437;DHT22;4757;59.334;18.034;2023-03-15T05:02:51;-1.40;99.90
9437;DHT22;4757;59.334;18.034;2023-03-15T05:05:21;-1.40;99.90
9437;DHT22;4757;59.334;18.034;2023-03-15T05:07:49;-1.40;99.90
9437;DHT22;4757;59.334;18.034;2023-03-15T05:10:17;-1.40;99.90
9437;DHT22;4757;59.334;18.034;2023-03-15T05:12:44;-1.40;99.90
9437;DHT22;4757;59.334;18.034;2023-03-15T05:15:17;-1.40;99.90
9437;DHT22;4757;59.334;18.034;2023-03-15T05:17:44;-1.40;99.90
9437;DHT22;4757;59.334;18.034;2023-03-15T05:20:13;-1.40;99.90
9437;DHT22;4757;59.334;18.034;2023-03-15T05:22:41;-1.30;99.90
9437;DHT22;4757;59.334;18.034;2023-03-15T05:25:09;-1.30;99.90
9437;DHT22;4757;59.334;18.034;2023-03-15T05:27:37;-1.30;99.90
9437;DHT22;4757;59.334;18.034;2023-03-15T05:30:05;-1.30;99.90
9437;DHT22;4757;59.334;18.034;2023-03-15T05:32:33;-1.30;99.90
9437;DHT22;4757;59.334;18.034;2023-03-15T05:35:02;-1.20;99.90
9437;DHT22;4757;59.334;18.034;2023-03-15T05:37:30;-1.20;99.90
9437;DHT22;4757;59.334;18.034;2023-03-15T05:39:59;-1.20;99.90
9437;DHT22;4757;59.334;18.034;2023-03-15T05:42:27;-1.20;99.90
9437;DHT22;4757;59.334;18.034;2023-03-15T05:44:56;-1.10;99.90
9437;DHT22;4757;59.334;18.034;2023-03-15T05:47:23;-1.10;99.90
9437;DHT22;4757;59.334;18.034;2023-03-15T05:49:52;-1.10;99.90
9437;DHT22;4757;59.334;18.034;2023-03-15T05:52:19;-1.10;99.90
9437;DHT22;4757;59.334;18.034;2023-03-15T05:54:46;-1.10;99.90
9437;DHT22;4757;59.334;18.034;2023-03-15T05:57:13;-1.10;99.90
9437;DHT22;4757;59.334;18.034;2023-03-15T05:59:40;-1.00;99.90
9437;DHT22;4757;59.334;18.034;2023-03-15T06:02:07;-0.90;99.90
9437;DHT22;4757;59.334;18.034;2023-03-15T06:04:34;-0.40;99.90
9437;DHT22;4757;59.334;18.034;2023-03-15T06:07:03;1.00;99.90
9437;DHT22;4757;59.334;18.034;2023-03-15T06:09:31;1.90;99.90
9437;DHT22;4757;59.334;18.034;2023-03-15T06:11:58;2.40;99.90
9437;DHT22;4757;59.334;18.034;2023-03-15T06:14:26;2.70;99.90
9437;DHT22;4757;59.334;18.034;2023-03-15T06:16:53;2.60;99.90
9437;DHT22;4757;59.334;18.034;2023-03-15T06:19:21;2.80;99.90
9437;DHT22;4757;59.334;18.034;2023-03-15T06:21:48;3.20;99.90
9437;DHT22;4757;59.334;18.034;2023-03-15T06:24:16;3.50;99.90
9437;DHT22;4757;59.334;18.034;2023-03-15T06:26:43;4.00;99.90
9437;DHT22;4757;59.334;18.034;2023-03-15T06:29:10;4.00;99.90
9437;DHT22;4757;59.334;18.034;2023-03-15T06:31:37;4.00;99.90
9437;DHT22;4757;59.334;18.034;2023-03-15T06:34:04;4.10;99.90
9437;DHT22;4757;59.334;18.034;2023-03-15T06:36:33;4.40;99.90
9437;DHT22;4757;59.334;18.034;2023-03-15T06:39:00;4.50;99.90
9437;DHT22;4757;59.334;18.034;2023-03-15T06:41:29;4.10;99.90
9437;DHT22;4757;59.334;18.034;2023-03-15T06:43:58;3.70;99.90
9437;DHT22;4757;59.334;18.034;2023-03-15T06:46:26;4.60;99.90
9437;DHT22;4757;59.334;18.034;2023-03-15T06:48:53;4.50;99.90
9437;DHT22;4757;59.334;18.034;2023-03-15T06:51:21;4.20;99.90
9437;DHT22;4757;59.334;18.034;2023-03-15T06:53:48;3.80;99.90
9437;DHT22;4757;59.334;18.034;2023-03-15T06:56:15;4.00;99.90
9437;DHT22;4757;59.334;18.034;2023-03-15T06:58:43;3.70;99.90
9437;DHT22;4757;59.334;18.034;2023-03-15T07:01:14;4.60;99.90
9437;DHT22;4757;59.334;18.034;2023-03-15T07:03:41;4.90;99.90
9437;DHT22;4757;59.334;18.034;2023-03-15T07:06:09;4.50;99.90
9437;DHT22;4757;59.334;18.034;2023-03-15T07:08:36;4.40;99.90
9437;DHT22;4757;59.334;18.034;2023-03-15T07:11:04;4.20;99.90
9437;DHT22;4757;59.334;18.034;2023-03-15T07:13:32;4.20;99.90
9437;DHT22;4757;59.334;18.034;2023-03-15T07:16:00;4.30;99.90
9437;DHT22;4757;59.334;18.034;2023-03-15T07:18:27;4.80;99.90
9437;DHT22;4757;59.334;18.034;2023-03-15T07:21:00;5.20;99.90
9437;DHT22;4757;59.334;18.034;2023-03-15T07:23:28;4.80;99.90
9437;DHT22;4757;59.334;18.034;2023-03-15T07:25:56;4.30;99.90
9437;DHT22;4757;59.334;18.034;2023-03-15T07:28:25;3.80;99.90
9437;DHT22;4757;59.334;18.034;2023-03-15T07:30:57;4.20;99.90
9437;DHT22;4757;59.334;18.034;2023-03-15T07:33:27;3.90;99.90
9437;DHT22;4757;59.334;18.034;2023-03-15T07:35:55;3.70;99.90
9437;DHT22;4757;59.334;18.034;2023-03-15T07:38:24;4.20;99.90
9437;DHT22;4757;59.334;18.034;2023-03-15T07:40:52;4.90;99.90
9437;DHT22;4757;59.334;18.034;2023-03-15T07:43:19;5.30;99.90
9437;DHT22;4757;59.334;18.034;2023-03-15T07:45:46;5.60;99.90
9437;DHT22;4757;59.334;18.034;2023-03-15T07:48:14;5.00;99.90
9437;DHT22;4757;59.334;18.034;2023-03-15T07:50:41;4.40;99.90
9437;DHT22;4757;59.334;18.034;2023-03-15T07:53:08;3.80;99.90
9437;DHT22;4757;59.334;18.034;2023-03-15T07:55:35;3.60;99.90
9437;DHT22;4757;59.334;18.034;2023-03-15T07:58:03;3.30;99.90
9437;DHT22;4757;59.334;18.034;2023-03-15T08:00:30;3.00;99.90
9437;DHT22;4757;59.334;18.034;2023-03-15T08:02:58;2.80;99.90
9437;DHT22;4757;59.334;18.034;2023-03-15T08:05:25;2.70;99.90
9437;DHT22;4757;59.334;18.034;2023-03-15T08:07:54;2.30;99.90
9437;DHT22;4757;59.334;18.034;2023-03-15T08:10:22;2.20;99.90
9437;DHT22;4757;59.334;18.034;2023-03-15T08:12:50;2.00;99.90
9437;DHT22;4757;59.334;18.034;2023-03-15T08:15:19;2.00;99.90
9437;DHT22;4757;59.334;18.034;2023-03-15T08:17:47;1.90;99.90
9437;DHT22;4757;59.334;18.034;2023-03-15T08:20:15;1.80;99.90
9437;DHT22;4757;59.334;18.034;2023-03-15T08:22:47;1.90;99.90
9437;DHT22;4757;59.334;18.034;2023-03-15T08:25:17;1.90;99.90
9437;DHT22;4757;59.334;18.034;2023-03-15T08:27:44;1.80;99.90
9437;DHT22;4757;59.334;18.034;2023-03-15T08:30:13;1.80;99.90
9437;DHT22;4757;59.334;18.034;2023-03-15T08:32:42;1.80;99.90
9437;DHT22;4757;59.334;18.034;2023-03-15T08:35:11;1.80;99.90
9437;DHT22;4757;59.334;18.034;2023-03-15T08:37:42;1.80;99.90
9437;DHT22;4757;59.334;18.034;2023-03-15T08:40:15;1.70;99.90
9437;DHT22;4757;59.334;18.034;2023-03-15T08:42:44;1.80;99.90
9437;DHT22;4757;59.334;18.034;2023-03-15T08:45:12;1.70;99.90
9437;DHT22;4757;59.334;18.034;2023-03-15T08:47:39;1.80;99.90
9437;DHT22;4757;59.334;18.034;2023-03-15T08:50:16;1.70;99.90
9437;DHT22;4757;59.334;18.034;2023-03-15T08:52:44;1.70;99.90
9437;DHT22;4757;59.334;18.034;2023-03-15T08:55:12;1.80;99.90
9437;DHT22;4757;59.334;18.034;2023-03-15T08:57:41;1.80;99.90
9437;DHT22;4757;59.334;18.034;2023-03-15T09:00:10;1.70;99.90
9437;DHT22;4757;59.334;18.034;2023-03-15T09:02:48;1.60;99.90
9437;DHT22;4757;59.334;18.034;2023-03-15T09:05:16;1.60;99.90
9437;DHT22;4757;59.334;18.034;2023-03-15T09:07:44;1.70;99.90
9437;DHT22;4757;59.334;18.034;2023-03-15T09:10:13;1.70;99.90
9437;DHT22;4757;59.334;18.034;2023-03-15T09:12:45;1.60;99.90
9437;DHT22;4757;59.334;18.034;2023-03-15T09:15:13;1.70;99.90
9437;DHT22;4757;59.334;18.034;2023-03-15T09:17:41;1.70;99.90
9437;DHT22;4757;59.334;18.034;2023-03-15T09:20:11;1.70;99.90
9437;DHT22;4757;59.334;18.034;2023-03-15T09:22:53;1.70;99.90
9437;DHT22;4757;59.334;18.034;2023-03-15T09:25:22;1.70;99.90
9437;DHT22;4757;59.334;18.034;2023-03-15T09:27:50;1.80;99.90
9437;DHT22;4757;59.334;18.034;2023-03-15T09:30:18;1.90;99.90
9437;DHT22;4757;59.334;18.034;2023-03-15T09:32:45;1.90;99.90
9437;DHT22;4757;59.334;18.034;2023-03-15T09:35:15;1.90;99.90
9437;DHT22;4757;59.334;18.034;2023-03-15T09:37:43;1.90;99.90
9437;DHT22;4757;59.334;18.034;2023-03-15T09:40:28;2.00;99.90
9437;DHT22;4757;59.334;18.034;2023-03-15T09:43:09;2.00;99.90
9437;DHT22;4757;59.334;18.034;2023-03-15T09:48:33;2.10;99.90
9437;DHT22;4757;59.334;18.034;2023-03-15T09:51:17;2.10;99.90
9437;DHT22;4757;59.334;18.034;2023-03-15T09:53:51;2.10;99.90
9437;DHT22;4757;59.334;18.034;2023-03-15T09:56:33;2.10;99.90
9437;DHT22;4757;59.334;18.034;2023-03-15T09:59:03;2.20;99.90
9437;DHT22;4757;59.334;18.034;2023-03-15T10:01:37;2.30;99.90
9437;DHT22;4757;59.334;18.034;2023-03-15T10:04:31;2.40;99.90
9437;DHT22;4757;59.334;18.034;2023-03-15T10:07:11;2.40;99.90
9437;DHT22;4757;59.334;18.034;2023-03-15T10:09:40;2.40;99.90
9437;DHT22;4757;59.334;18.034;2023-03-15T10:12:15;2.50;99.90
9437;DHT22;4757;59.334;18.034;2023-03-15T10:15:28;2.60;99.90
9437;DHT22;4757;59.334;18.034;2023-03-15T10:18:45;2.60;99.90
9437;DHT22;4757;59.334;18.034;2023-03-15T10:21:36;2.60;99.90
9437;DHT22;4757;59.334;18.034;2023-03-15T10:24:27;2.60;99.90
9437;DHT22;4757;59.334;18.034;2023-03-15T10:27:24;2.70;99.90
9437;DHT22;4757;59.334;18.034;2023-03-15T10:29:57;2.80;99.90
9437;DHT22;4757;59.334;18.034;2023-03-15T10:32:29;2.80;99.90
9437;DHT22;4757;59.334;18.034;2023-03-15T10:35:14;2.70;99.90
9437;DHT22;4757;59.334;18.034;2023-03-15T10:37:42;2.80;99.90
9437;DHT22;4757;59.334;18.034;2023-03-15T10:40:13;2.80;99.90
9437;DHT22;4757;59.334;18.034;2023-03-15T10:42:43;2.90;99.90
9437;DHT22;4757;59.334;18.034;2023-03-15T10:47:48;3.00;99.90
9437;DHT22;4757;59.334;18.034;2023-03-15T10:50:30;3.00;99.90
9437;DHT22;4757;59.334;18.034;2023-03-15T10:53:00;3.00;99.90
9437;DHT22;4757;59.334;18.034;2023-03-15T10:55:34;3.00;99.90
9437;DHT22;4757;59.334;18.034;2023-03-15T10:58:28;3.10;99.90
9437;DHT22;4757;59.334;18.034;2023-03-15T11:01:02;3.10;99.90
9437;DHT22;4757;59.334;18.034;2023-03-15T11:03:36;3.10;99.90
9437;DHT22;4757;59.334;18.034;2023-03-15T11:06:23;3.20;99.90
9437;DHT22;4757;59.334;18.034;2023-03-15T11:08:51;3.20;99.90
9437;DHT22;4757;59.334;18.034;2023-03-15T11:11:19;3.30;99.90
9437;DHT22;4757;59.334;18.034;2023-03-15T11:13:58;3.30;99.90
9437;DHT22;4757;59.334;18.034;2023-03-15T11:16:33;3.30;99.90
9437;DHT22;4757;59.334;18.034;2023-03-15T11:19:06;3.30;99.90
9437;DHT22;4757;59.334;18.034;2023-03-15T11:21:38;3.40;99.90
9437;DHT22;4757;59.334;18.034;2023-03-15T11:24:30;3.50;99.90
9437;DHT22;4757;59.334;18.034;2023-03-15T11:27:01;3.50;99.90
9437;DHT22;4757;59.334;18.034;2023-03-15T11:29:33;3.50;99.90
9437;DHT22;4757;59.334;18.034;2023-03-15T11:32:20;3.60;99.90
9437;DHT22;4757;59.334;18.034;2023-03-15T11:35:11;3.50;99.90
9437;DHT22;4757;59.334;18.034;2023-03-15T11:37:47;3.60;99.90
9437;DHT22;4757;59.334;18.034;2023-03-15T11:40:29;3.50;99.90
9437;DHT22;4757;59.334;18.034;2023-03-15T11:43:16;3.60;99.90
9437;DHT22;4757;59.334;18.034;2023-03-15T11:45:54;3.60;99.90
9437;DHT22;4757;59.334;18.034;2023-03-15T11:48:36;3.70;99.90
9437;DHT22;4757;59.334;18.034;2023-03-15T11:51:10;3.80;99.90
9437;DHT22;4757;59.334;18.034;2023-03-15T11:53:58;3.80;99.90
9437;DHT22;4757;59.334;18.034;2023-03-15T11:56:53;3.80;99.90
9437;DHT22;4757;59.334;18.034;2023-03-15T12:01:59;3.80;99.90
9437;DHT22;4757;59.334;18.034;2023-03-15T12:10:33;3.90;99.90
9437;DHT22;4757;59.334;18.034;2023-03-15T12:13:14;3.90;99.90
9437;DHT22;4757;59.334;18.034;2023-03-15T12:15:45;3.90;99.90
9437;DHT22;4757;59.334;18.034;2023-03-15T12:18:32;4.00;99.90
9437;DHT22;4757;59.334;18.034;2023-03-15T12:21:08;4.00;99.90
9437;DHT22;4757;59.334;18.034;2023-03-15T12:23:46;4.10;99.90
9437;DHT22;4757;59.334;18.034;2023-03-15T12:26:41;4.10;99.90
9437;DHT22;4757;59.334;18.034;2023-03-15T12:29:29;4.20;99.90
9437;DHT22;4757;59.334;18.034;2023-03-15T12:37:12;4.40;99.90
9437;DHT22;4757;59.334;18.034;2023-03-15T12:39:46;4.60;99.90
9437;DHT22;4757;59.334;18.034;2023-03-15T12:53:27;6.70;99.90
9437;DHT22;4757;59.334;18.034;2023-03-15T12:55:57;7.10;99.90
9437;DHT22;4757;59.334;18.034;2023-03-15T12:58:36;7.30;99.90
9437;DHT22;4757;59.334;18.034;2023-03-15T13:01:06;7.10;99.90
9437;DHT22;4757;59.334;18.034;2023-03-15T13:03:34;7.30;99.90
9437;DHT22;4757;59.334;18.034;2023-03-15T13:08:38;8.20;99.90
9437;DHT22;4757;59.334;18.034;2023-03-15T13:22:53;8.00;99.90
9437;DHT22;4757;59.334;18.034;2023-03-15T13:28:20;8.10;99.90
9437;DHT22;4757;59.334;18.034;2023-03-15T13:30:53;8.20;99.90
9437;DHT22;4757;59.334;18.034;2023-03-15T13:33:31;7.60;99.90
9437;DHT22;4757;59.334;18.034;2023-03-15T13:36:05;7.10;99.90
9437;DHT22;4757;59.334;18.034;2023-03-15T13:38:43;6.80;99.90
9437;DHT22;4757;59.334;18.034;2023-03-15T13:41:25;6.30;99.90
9437;DHT22;4757;59.334;18.034;2023-03-15T13:43:57;6.10;99.90
9437;DHT22;4757;59.334;18.034;2023-03-15T13:46:29;5.70;99.90
9437;DHT22;4757;59.334;18.034;2023-03-15T13:48:59;5.60;99.90
9437;DHT22;4757;59.334;18.034;2023-03-15T13:51:36;5.40;99.90
9437;DHT22;4757;59.334;18.034;2023-03-15T13:54:10;5.30;99.90
9437;DHT22;4757;59.334;18.034;2023-03-15T13:59:29;5.00;99.90
9437;DHT22;4757;59.334;18.034;2023-03-15T14:01:59;5.00;99.90
9437;DHT22;4757;59.334;18.034;2023-03-15T14:04:33;5.00;99.90
9437;DHT22;4757;59.334;18.034;2023-03-15T14:07:12;5.00;99.90
9437;DHT22;4757;59.334;18.034;2023-03-15T14:09:44;4.90;99.90
9437;DHT22;4757;59.334;18.034;2023-03-15T14:12:18;4.80;99.90
9437;DHT22;4757;59.334;18.034;2023-03-15T14:14:52;4.80;99.90
9437;DHT22;4757;59.334;18.034;2023-03-15T14:17:29;4.70;99.90
9437;DHT22;4757;59.334;18.034;2023-03-15T14:20:13;4.70;99.90
9437;DHT22;4757;59.334;18.034;2023-03-15T14:22:44;4.70;99.90
9437;DHT22;4757;59.334;18.034;2023-03-15T14:25:21;4.70;99.90
9437;DHT22;4757;59.334;18.034;2023-03-15T14:27:51;4.80;99.90
9437;DHT22;4757;59.334;18.034;2023-03-15T14:30:21;4.70;99.90
9437;DHT22;4757;59.334;18.034;2023-03-15T14:32:55;4.70;99.90
9437;DHT22;4757;59.334;18.034;2023-03-15T14:38:17;4.60;99.90
9437;DHT22;4757;59.334;18.034;2023-03-15T14:40:45;4.60;99.90
9437;DHT22;4757;59.334;18.034;2023-03-15T14:43:13;4.50;99.90
9437;DHT22;4757;59.334;18.034;2023-03-15T14:45:42;4.50;99.90
9437;DHT22;4757;59.334;18.034;2023-03-15T14:48:26;4.60;99.90
9437;DHT22;4757;59.334;18.034;2023-03-15T14:50:58;4.50;99.90
9437;DHT22;4757;59.334;18.034;2023-03-15T14:53:38;4.50;99.90
9437;DHT22;4757;59.334;18.034;2023-03-15T14:56:05;4.50;99.90
9437;DHT22;4757;59.334;18.034;2023-03-15T14:58:33;4.50;99.90
9437;DHT22;4757;59.334;18.034;2023-03-15T15:01:01;4.50;99.90
9437;DHT22;4757;59.334;18.034;2023-03-15T15:03:40;4.50;99.90
9437;DHT22;4757;59.334;18.034;2023-03-15T15:06:12;4.50;99.90
9437;DHT22;4757;59.334;18.034;2023-03-15T15:08:43;4.50;99.90
9437;DHT22;4757;59.334;18.034;2023-03-15T15:11:11;4.50;99.90
9437;DHT22;4757;59.334;18.034;2023-03-15T15:13:39;4.50;99.90
9437;DHT22;4757;59.334;18.034;2023-03-15T15:16:07;4.40;99.90
9437;DHT22;4757;59.334;18.034;2023-03-15T15:18:35;4.40;99.90
9437;DHT22;4757;59.334;18.034;2023-03-15T15:21:21;4.40;99.90
9437;DHT22;4757;59.334;18.034;2023-03-15T15:23:49;4.50;99.90
9437;DHT22;4757;59.334;18.034;2023-03-15T15:26:27;4.50;99.90
9437;DHT22;4757;59.334;18.034;2023-03-15T15:28:55;4.50;99.90
9437;DHT22;4757;59.334;18.034;2023-03-15T15:31:23;4.50;99.90
9437;DHT22;4757;59.334;18.034;2023-03-15T15:33:52;4.40;99.90
9437;DHT22;4757;59.334;18.034;2023-03-15T15:36:26;4.50;99.90
9437;DHT22;4757;59.334;18.034;2023-03-15T15:38:59;4.40;99.90
9437;DHT22;4757;59.334;18.034;2023-03-15T15:41:33;4.40;99.90
9437;DHT22;4757;59.334;18.034;2023-03-15T15:44:01;4.40;99.90
9437;DHT22;4757;59.334;18.034;2023-03-15T15:46:28;4.30;99.90
9437;DHT22;4757;59.334;18.034;2023-03-15T15:48:56;4.40;99.90
9437;DHT22;4757;59.334;18.034;2023-03-15T15:51:26;4.40;99.90
9437;DHT22;4757;59.334;18.034;2023-03-15T15:53:55;4.40;99.90
9437;DHT22;4757;59.334;18.034;2023-03-15T15:56:32;4.30;99.90
9437;DHT22;4757;59.334;18.034;2023-03-15T15:59:01;4.30;99.90
9437;DHT22;4757;59.334;18.034;2023-03-15T16:01:30;4.30;99.90
9437;DHT22;4757;59.334;18.034;2023-03-15T16:03:59;4.30;99.90
9437;DHT22;4757;59.334;18.034;2023-03-15T16:06:27;4.20;99.90
9437;DHT22;4757;59.334;18.034;2023-03-15T16:08:54;4.20;99.90
9437;DHT22;4757;59.334;18.034;2023-03-15T16:11:22;4.20;99.90
9437;DHT22;4757;59.334;18.034;2023-03-15T16:13:51;4.20;99.90
9437;DHT22;4757;59.334;18.034;2023-03-15T16:16:20;4.10;99.90
9437;DHT22;4757;59.334;18.034;2023-03-15T16:18:47;4.10;99.90
9437;DHT22;4757;59.334;18.034;2023-03-15T16:21:18;4.10;99.90
9437;DHT22;4757;59.334;18.034;2023-03-15T16:23:54;4.10;99.90
9437;DHT22;4757;59.334;18.034;2023-03-15T16:26:23;4.10;99.90
9437;DHT22;4757;59.334;18.034;2023-03-15T16:28:52;4.00;99.90
9437;DHT22;4757;59.334;18.034;2023-03-15T16:31:21;4.00;99.90
9437;DHT22;4757;59.334;18.034;2023-03-15T16:33:49;4.00;99.90
9437;DHT22;4757;59.334;18.034;2023-03-15T16:36:19;3.90;99.90
9437;DHT22;4757;59.334;18.034;2023-03-15T16:38:48;3.90;99.90
9437;DHT22;4757;59.334;18.034;2023-03-15T16:41:18;3.90;99.90
9437;DHT22;4757;59.334;18.034;2023-03-15T16:43:46;3.80;99.90
9437;DHT22;4757;59.334;18.034;2023-03-15T16:46:15;3.80;99.90
9437;DHT22;4757;59.334;18.034;2023-03-15T16:48:43;3.80;99.90
9437;DHT22;4757;59.334;18.034;2023-03-15T16:51:12;3.80;99.90
9437;DHT22;4757;59.334;18.034;2023-03-15T16:53:40;3.70;99.90
9437;DHT22;4757;59.334;18.034;2023-03-15T16:56:12;3.70;99.90
9437;DHT22;4757;59.334;18.034;2023-03-15T16:58:41;3.60;99.90
9437;DHT22;4757;59.334;18.034;2023-03-15T17:01:10;3.60;99.90
9437;DHT22;4757;59.334;18.034;2023-03-15T17:03:37;3.50;99.90
9437;DHT22;4757;59.334;18.034;2023-03-15T17:06:08;3.50;99.90
9437;DHT22;4757;59.334;18.034;2023-03-15T17:08:42;3.40;99.90
9437;DHT22;4757;59.334;18.034;2023-03-15T17:11:12;3.40;99.90
9437;DHT22;4757;59.334;18.034;2023-03-15T17:13:40;3.40;99.90
9437;DHT22;4757;59.334;18.034;2023-03-15T17:16:13;3.30;99.90
9437;DHT22;4757;59.334;18.034;2023-03-15T17:18:42;3.30;99.90
9437;DHT22;4757;59.334;18.034;2023-03-15T17:21:14;3.30;99.90
9437;DHT22;4757;59.334;18.034;2023-03-15T17:23:42;3.30;99.90
9437;DHT22;4757;59.334;18.034;2023-03-15T17:26:16;3.30;99.90
9437;DHT22;4757;59.334;18.034;2023-03-15T17:28:44;3.30;99.90